createdAt,value
2022-11-12T00:01:08.242Z,3.72
2022-11-12T00:03:57.464Z,3.67
2022-11-12T00:06:44.508Z,3.65
2022-11-12T00:09:31.754Z,3.60
2022-11-12T00:12:18.455Z,3.71
2022-11-12T00:15:07.359Z,3.61
2022-11-12T00:17:54.931Z,3.68
2022-11-12T00:20:41.948Z,3.67
2022-11-12T00:23:28.717Z,3.71
2022-11-12T00:26:15.688Z,3.79
2022-11-12T00:29:03.220Z,3.82
2022-11-12T00:31:50.112Z,3.80
2022-11-12T00:34:38.089Z,3.75
2022-11-12T00:37:25.398Z,3.85
2022-11-12T00:40:12.321Z,3.70
2022-11-12T00:42:59.190Z,3.67
2022-11-12T00:45:46.683Z,3.66
2022-11-12T00:48:33.895Z,3.68
2022-11-12T00:51:20.821Z,3.72
2022-11-12T00:54:08.221Z,3.74
2022-11-12T00:56:55.049Z,3.78
2022-11-12T00:59:42.344Z,3.83
2022-11-12T01:02:29.120Z,3.81
2022-11-12T01:05:16.044Z,3.86
2022-11-12T01:08:03.092Z,3.86
2022-11-12T01:10:49.822Z,3.92
2022-11-12T01:13:44.281Z,3.93
2022-11-12T01:16:37.349Z,3.91
2022-11-12T01:19:24.394Z,3.92
2022-11-12T01:22:11.810Z,3.94
2022-11-12T01:24:58.803Z,3.90
2022-11-12T01:27:45.747Z,3.83
2022-11-12T01:30:32.667Z,3.82
2022-11-12T01:33:19.482Z,3.72
2022-11-12T01:36:07.420Z,3.70
2022-11-12T01:38:56.106Z,3.69
2022-11-12T01:41:43.462Z,3.69
2022-11-12T01:44:37.870Z,3.64
2022-11-12T01:47:33.381Z,3.57
2022-11-12T01:50:32.391Z,3.59
2022-11-12T01:53:23.004Z,3.56
2022-11-12T01:56:10.896Z,3.54
2022-11-12T01:59:23.242Z,3.50
2022-11-12T02:02:11.453Z,3.37
2022-11-12T02:04:59.916Z,3.38
2022-11-12T02:07:49.287Z,3.42
2022-11-12T02:10:38.619Z,3.38
2022-11-12T02:13:44.398Z,3.30
2022-11-12T02:16:41.510Z,3.22
2022-11-12T02:19:28.550Z,3.03
2022-11-12T02:22:15.387Z,3.01
2022-11-12T02:25:02.239Z,2.95
2022-11-12T02:27:53.335Z,2.91
2022-11-12T02:30:49.500Z,2.92
2022-11-12T02:33:36.462Z,2.82
2022-11-12T02:36:23.903Z,2.82
2022-11-12T02:39:10.813Z,2.82
2022-11-12T02:41:57.954Z,2.90
2022-11-12T02:44:44.864Z,2.87
2022-11-12T02:47:31.901Z,2.87
2022-11-12T02:50:19.672Z,2.87
2022-11-12T02:53:07.131Z,2.90
2022-11-12T02:55:53.909Z,2.91
2022-11-12T02:58:40.618Z,2.92
2022-11-12T03:01:27.867Z,2.88
2022-11-12T03:04:15.052Z,2.81
2022-11-12T03:07:01.756Z,2.81
2022-11-12T03:09:49.003Z,2.81
2022-11-12T03:12:35.741Z,2.81
2022-11-12T03:15:22.529Z,2.79
2022-11-12T03:18:10.729Z,2.68
2022-11-12T03:20:57.810Z,2.74
2022-11-12T03:23:45.074Z,2.65
2022-11-12T03:26:35.847Z,2.65
2022-11-12T03:29:23.194Z,2.56
2022-11-12T03:32:10.064Z,2.56
2022-11-12T03:34:57.309Z,2.53
2022-11-12T03:37:44.625Z,2.53
2022-11-12T03:40:32.762Z,2.43
2022-11-12T03:43:19.698Z,2.37
2022-11-12T03:46:06.522Z,2.35
2022-11-12T03:48:53.389Z,2.33
2022-11-12T03:51:40.429Z,2.30
2022-11-12T03:54:27.767Z,2.27
2022-11-12T03:57:15.057Z,2.22
2022-11-12T04:00:01.957Z,2.23
2022-11-12T04:02:49.607Z,2.27
2022-11-12T04:05:54.927Z,2.23
2022-11-12T04:08:41.586Z,2.30
2022-11-12T04:11:28.757Z,2.32
2022-11-12T04:14:15.408Z,2.36
2022-11-12T04:17:20.464Z,2.34
2022-11-12T04:20:28.004Z,2.37
2022-11-12T04:23:14.909Z,2.31
2022-11-12T04:26:19.969Z,2.24
2022-11-12T04:29:25.777Z,2.25
2022-11-12T04:32:13.273Z,2.32
2022-11-12T04:35:00.625Z,2.27
2022-11-12T04:37:49.366Z,2.20
2022-11-12T04:40:54.406Z,2.25
2022-11-12T04:43:59.560Z,2.19
2022-11-12T04:46:46.464Z,2.19
2022-11-12T04:49:33.761Z,2.15
2022-11-12T04:52:20.491Z,2.19
2022-11-12T04:55:08.414Z,2.25
2022-11-12T04:58:00.873Z,2.29
2022-11-12T05:00:52.368Z,2.37
2022-11-12T05:03:39.528Z,2.45
2022-11-12T05:06:45.133Z,2.45
2022-11-12T05:09:32.388Z,2.46
2022-11-12T05:12:19.503Z,2.48
2022-11-12T05:15:07.624Z,2.51
2022-11-12T05:17:54.714Z,2.53
2022-11-12T05:20:41.802Z,2.48
2022-11-12T05:23:32.831Z,2.48
2022-11-12T05:26:19.955Z,2.35
2022-11-12T05:29:08.976Z,2.35
2022-11-12T05:31:56.666Z,2.38
2022-11-12T05:34:43.477Z,2.47
2022-11-12T05:37:35.373Z,2.53
2022-11-12T05:40:22.406Z,2.60
2022-11-12T05:43:09.930Z,2.67
2022-11-12T05:45:57.170Z,2.68
2022-11-12T05:48:44.674Z,2.72
2022-11-12T05:51:31.849Z,2.68
2022-11-12T05:54:20.358Z,2.76
2022-11-12T05:57:07.572Z,2.73
2022-11-12T05:59:54.455Z,2.80
2022-11-12T06:02:42.965Z,2.70
2022-11-12T06:05:30.422Z,2.71
2022-11-12T06:08:17.844Z,2.82
2022-11-12T06:11:04.952Z,2.83
2022-11-12T06:13:51.940Z,2.88
2022-11-12T06:16:38.712Z,3.01
2022-11-12T06:19:26.110Z,3.09
2022-11-12T06:22:13.542Z,3.18
2022-11-12T06:25:00.668Z,3.20
2022-11-12T06:27:47.941Z,3.28
2022-11-12T06:30:34.749Z,3.33
2022-11-12T06:33:22.496Z,3.39
2022-11-12T06:36:12.981Z,3.55
2022-11-12T06:39:00.138Z,3.60
2022-11-12T06:41:46.904Z,3.53
2022-11-12T06:44:34.183Z,3.58
2022-11-12T06:47:23.268Z,3.58
2022-11-12T06:50:10.749Z,3.65
2022-11-12T06:53:00.919Z,3.81
2022-11-12T06:55:48.332Z,3.81
2022-11-12T06:58:36.336Z,3.81
2022-11-12T07:01:23.954Z,3.74
2022-11-12T07:04:11.427Z,3.69
2022-11-12T07:06:58.680Z,3.81
2022-11-12T07:09:46.214Z,3.86
2022-11-12T07:12:33.323Z,3.71
2022-11-12T07:15:20.503Z,3.52
2022-11-12T07:18:07.351Z,3.66
2022-11-12T07:21:21.396Z,3.70
2022-11-12T07:24:09.187Z,3.92
2022-11-12T07:26:56.239Z,3.83
2022-11-12T07:29:48.012Z,3.95
2022-11-12T07:32:41.938Z,3.93
2022-11-12T07:35:31.449Z,3.92
2022-11-12T07:38:18.339Z,4.00
2022-11-12T07:41:08.685Z,4.11
2022-11-12T07:43:55.887Z,4.20
2022-11-12T07:46:42.944Z,4.29
2022-11-12T07:49:29.810Z,4.29
2022-11-12T07:52:17.092Z,4.29
2022-11-12T07:55:04.874Z,4.30
2022-11-12T07:57:53.667Z,4.41
2022-11-12T08:00:40.919Z,4.47
2022-11-12T08:03:28.102Z,4.50
2022-11-12T08:06:15.363Z,4.52
2022-11-12T08:09:05.616Z,4.45
2022-11-12T08:11:54.824Z,4.52
2022-11-12T08:14:41.735Z,4.52
2022-11-12T08:17:28.437Z,4.58
2022-11-12T08:20:15.256Z,4.59
2022-11-12T08:23:02.648Z,4.60
2022-11-12T08:25:50.069Z,4.65
2022-11-12T08:28:37.839Z,4.72
2022-11-12T08:31:25.503Z,4.89
2022-11-12T08:34:12.674Z,5.01
2022-11-12T08:37:00.762Z,5.09
2022-11-12T08:39:47.564Z,5.20
2022-11-12T08:42:34.556Z,5.19
2022-11-12T08:45:21.975Z,5.26
2022-11-12T08:48:14.474Z,5.42
2022-11-12T08:51:04.122Z,5.56
2022-11-12T08:53:51.182Z,5.43
2022-11-12T08:56:40.033Z,5.43
2022-11-12T08:59:27.446Z,5.58
2022-11-12T09:02:14.866Z,5.64
2022-11-12T09:05:02.262Z,5.92
2022-11-12T09:07:56.603Z,6.09
2022-11-12T09:10:44.941Z,6.01
2022-11-12T09:13:32.444Z,6.01
2022-11-12T09:16:21.451Z,6.03
2022-11-12T09:19:08.495Z,6.11
2022-11-12T09:21:55.332Z,6.16
2022-11-12T09:24:41.835Z,6.18
2022-11-12T09:27:29.394Z,6.13
2022-11-12T09:30:16.628Z,6.07
2022-11-12T09:33:04.261Z,6.12
2022-11-12T09:35:52.317Z,6.11
2022-11-12T09:38:39.128Z,6.08
2022-11-12T09:41:36.663Z,6.13
2022-11-12T09:44:24.610Z,6.07
2022-11-12T09:47:27.680Z,6.19
2022-11-12T09:50:28.872Z,6.23
2022-11-12T09:53:46.670Z,6.25
2022-11-12T09:56:33.607Z,6.26
2022-11-12T09:59:22.567Z,6.31
2022-11-12T10:02:33.927Z,6.24
2022-11-12T10:05:49.456Z,6.41
2022-11-12T10:08:51.911Z,6.48
2022-11-12T10:12:24.500Z,6.49
2022-11-12T10:15:49.927Z,6.52
2022-11-12T10:19:04.228Z,6.58
2022-11-12T10:22:26.851Z,6.54
2022-11-12T10:25:18.373Z,6.58
2022-11-12T10:28:38.603Z,6.56
2022-11-12T10:31:26.654Z,6.56
2022-11-12T10:34:21.008Z,6.59
2022-11-12T10:37:34.245Z,6.64
2022-11-12T10:40:21.121Z,6.73
2022-11-12T10:43:24.795Z,6.76
2022-11-12T10:46:21.927Z,6.85
2022-11-12T10:49:14.913Z,6.92
2022-11-12T10:52:01.800Z,6.94
2022-11-12T10:54:53.926Z,6.97
2022-11-12T10:57:42.215Z,7.02
2022-11-12T11:00:28.861Z,7.05
2022-11-12T11:03:45.231Z,7.14
2022-11-12T11:06:32.913Z,7.25
2022-11-12T11:09:21.836Z,7.39
2022-11-12T11:12:26.089Z,7.50
2022-11-12T11:15:20.612Z,7.66
2022-11-12T11:18:14.447Z,7.79
2022-11-12T11:21:35.615Z,7.93
2022-11-12T11:24:54.916Z,8.04
2022-11-12T11:28:08.449Z,8.08
2022-11-12T11:31:02.245Z,8.08
2022-11-12T11:34:28.105Z,8.10
2022-11-12T11:37:26.054Z,8.18
2022-11-12T11:40:41.029Z,8.26
2022-11-12T11:43:51.675Z,8.37
2022-11-12T11:46:47.562Z,8.42
2022-11-12T11:49:59.411Z,8.49
2022-11-12T11:53:23.750Z,8.51
2022-11-12T11:56:27.271Z,8.57
2022-11-12T11:59:56.275Z,8.64
2022-11-12T12:03:14.044Z,8.69
2022-11-12T12:06:21.121Z,8.75
2022-11-12T12:09:33.159Z,8.86
2022-11-12T12:12:49.195Z,8.97
2022-11-12T12:15:55.913Z,9.06
2022-11-12T12:19:26.066Z,9.17
2022-11-12T12:22:22.440Z,9.27
2022-11-12T12:25:26.485Z,9.36
2022-11-12T12:28:16.839Z,9.46
2022-11-12T12:31:13.504Z,9.54
2022-11-12T12:34:06.790Z,9.58
2022-11-12T12:37:06.130Z,9.59
2022-11-12T12:40:18.823Z,9.62
2022-11-12T12:43:32.855Z,9.61
2022-11-12T12:46:24.314Z,9.60
2022-11-12T12:49:23.447Z,9.60
2022-11-12T12:52:18.131Z,9.62
2022-11-12T12:58:40.909Z,9.67
2022-11-12T13:01:34.332Z,9.67
2022-11-12T13:04:54.432Z,9.68
2022-11-12T13:07:49.994Z,9.70
2022-11-12T13:10:37.151Z,9.73
2022-11-12T13:13:32.612Z,9.74
2022-11-12T13:16:53.569Z,9.76
2022-11-12T13:19:58.553Z,9.79
2022-11-12T13:22:51.741Z,9.82
2022-11-12T13:25:39.485Z,9.83
2022-11-12T13:28:30.682Z,9.86
2022-11-12T13:31:28.792Z,9.88
2022-11-12T13:34:34.006Z,9.87
2022-11-12T13:37:23.919Z,9.91
2022-11-12T13:40:16.957Z,9.96
2022-11-12T13:43:16.288Z,9.97
2022-11-12T13:46:18.638Z,9.96
2022-11-12T13:49:15.288Z,9.98
2022-11-12T13:52:06.580Z,9.96
2022-11-12T13:55:12.166Z,10.00
2022-11-12T13:58:00.466Z,10.00
2022-11-12T14:01:06.686Z,9.99
2022-11-12T14:03:59.705Z,9.97
2022-11-12T14:06:53.694Z,9.95
2022-11-12T14:10:30.142Z,9.88
2022-11-12T14:13:56.750Z,9.82
2022-11-12T14:16:55.142Z,9.77
2022-11-12T14:19:51.933Z,9.71
2022-11-12T14:22:42.179Z,9.66
2022-11-12T14:25:35.003Z,9.60
2022-11-12T14:28:27.202Z,9.55
2022-11-12T14:31:15.413Z,9.48
2022-11-12T14:34:41.417Z,9.41
2022-11-12T14:37:42.948Z,9.35
2022-11-12T14:40:36.229Z,9.29
2022-11-12T14:43:36.076Z,9.22
2022-11-12T14:46:27.330Z,9.13
2022-11-12T14:49:35.364Z,9.10
2022-11-12T14:52:31.717Z,9.04
2022-11-12T14:55:26.545Z,8.97
2022-11-12T14:58:18.985Z,8.93
2022-11-12T15:01:59.263Z,8.87
2022-11-12T15:04:38.151Z,8.81
2022-11-12T15:07:35.529Z,8.75
2022-11-12T15:10:46.030Z,8.69
2022-11-12T15:13:40.506Z,8.62
2022-11-12T15:16:29.846Z,8.57
2022-11-12T15:19:25.176Z,8.50
2022-11-12T15:22:23.628Z,8.44
2022-11-12T15:25:22.272Z,8.36
2022-11-12T15:28:14.805Z,8.27
2022-11-12T15:31:09.695Z,8.18
2022-11-12T15:34:30.362Z,8.10
2022-11-12T15:37:56.398Z,7.97
2022-11-12T15:40:46.119Z,7.89
2022-11-12T15:43:44.257Z,7.84
2022-11-12T15:46:32.594Z,7.80
2022-11-12T15:49:38.761Z,7.75
2022-11-12T15:52:28.229Z,7.68
2022-11-12T15:55:19.474Z,7.64
2022-11-12T15:58:08.624Z,7.59
2022-11-12T16:00:56.684Z,7.55
2022-11-12T16:04:11.598Z,7.51
2022-11-12T16:18:13.214Z,7.35
2022-11-12T16:21:00.314Z,7.25
2022-11-12T16:23:46.083Z,7.21
2022-11-12T16:26:41.338Z,7.19
2022-11-12T16:29:29.898Z,7.16
2022-11-12T16:32:17.700Z,7.11
2022-11-12T16:35:06.734Z,7.03
2022-11-12T16:38:03.669Z,7.00
2022-11-12T16:40:52.629Z,6.95
2022-11-12T16:43:39.811Z,6.89
2022-11-12T16:46:39.022Z,6.86
2022-11-12T16:49:27.774Z,6.81
2022-11-12T16:52:13.694Z,6.74
2022-11-12T16:55:04.327Z,6.70
2022-11-12T16:57:50.784Z,6.65
2022-11-12T17:00:41.356Z,6.58
2022-11-12T17:03:28.206Z,6.53
2022-11-12T17:06:16.020Z,6.53
2022-11-12T17:09:13.392Z,6.52
2022-11-12T17:12:22.461Z,6.52
2022-11-12T17:15:10.333Z,6.50
2022-11-12T17:17:57.258Z,6.47
2022-11-12T17:20:50.912Z,6.44
2022-11-12T17:23:37.841Z,6.42
2022-11-12T17:26:24.517Z,6.39
2022-11-12T17:29:10.673Z,6.38
2022-11-12T17:31:57.391Z,6.35
2022-11-12T17:34:45.209Z,6.23
2022-11-12T17:40:42.140Z,6.18
2022-11-12T17:43:30.529Z,6.10
2022-11-12T17:46:17.345Z,6.06
2022-11-12T17:49:15.462Z,5.99
2022-11-12T17:52:03.385Z,5.91
2022-11-12T17:54:52.008Z,5.81
2022-11-12T17:57:37.951Z,5.81
2022-11-12T18:00:24.175Z,5.76
2022-11-12T18:03:10.807Z,5.79
2022-11-12T18:05:58.540Z,5.78
2022-11-12T18:08:49.339Z,5.75
2022-11-12T18:11:48.193Z,5.74
2022-11-12T18:14:34.167Z,5.74
2022-11-12T18:17:20.248Z,5.70
2022-11-12T18:20:25.554Z,5.66
2022-11-12T18:23:12.613Z,5.58
2022-11-12T18:26:01.528Z,5.52
2022-11-12T18:28:52.489Z,5.49
2022-11-12T18:31:40.298Z,5.49
2022-11-12T18:34:27.975Z,5.49
2022-11-12T18:37:14.479Z,5.38
2022-11-12T18:40:00.788Z,5.37
2022-11-12T18:46:06.114Z,5.32
2022-11-12T18:48:54.270Z,5.28
2022-11-12T18:51:42.690Z,5.27
2022-11-12T18:54:32.684Z,5.26
2022-11-12T18:57:21.370Z,5.40
2022-11-12T19:00:13.986Z,5.52
2022-11-12T19:03:06.537Z,5.54
2022-11-12T19:06:43.364Z,5.47
2022-11-12T19:09:56.946Z,5.46
2022-11-12T19:13:07.270Z,5.38
2022-11-12T19:16:20.198Z,5.26
2022-11-12T19:19:18.096Z,5.12
2022-11-12T19:22:21.340Z,5.04
2022-11-12T19:25:28.596Z,4.94
2022-11-12T19:28:19.046Z,4.91
2022-11-12T19:32:19.071Z,4.89
2022-11-12T19:35:32.831Z,4.83
2022-11-12T19:38:28.764Z,4.79
2022-11-12T19:53:52.780Z,4.71
2022-11-12T19:56:42.584Z,4.66
2022-11-12T19:59:31.302Z,4.64
2022-11-12T20:02:23.713Z,4.64
2022-11-12T20:05:35.125Z,4.60
2022-11-12T20:09:12.477Z,4.58
2022-11-12T20:12:52.128Z,4.51
2022-11-12T20:20:37.840Z,4.80
2022-11-12T20:23:27.041Z,4.59
2022-11-12T20:29:49.699Z,4.51
2022-11-12T20:32:37.557Z,4.51
2022-11-12T20:39:11.753Z,4.37
2022-11-12T20:42:06.660Z,4.36
2022-11-12T20:45:09.907Z,4.40
2022-11-12T20:48:20.248Z,4.44
2022-11-12T20:51:24.529Z,4.36
2022-11-12T20:54:13.758Z,4.33
2022-11-12T20:57:40.476Z,4.30
2022-11-12T21:00:27.943Z,4.23
2022-11-12T21:03:15.701Z,4.19
2022-11-12T21:06:08.590Z,4.13
2022-11-12T21:09:00.454Z,4.07
2022-11-12T21:11:47.904Z,4.00
2022-11-12T21:14:35.757Z,3.96
2022-11-12T21:17:23.092Z,3.89
2022-11-12T21:20:10.804Z,3.83
2022-11-12T21:26:25.640Z,3.83
2022-11-12T21:29:18.689Z,3.81
2022-11-12T21:32:07.220Z,3.80
2022-11-12T21:38:15.276Z,3.81
2022-11-12T21:44:06.609Z,3.81
2022-11-12T21:46:53.754Z,3.76
2022-11-12T21:49:41.122Z,3.75
2022-11-12T21:52:30.207Z,3.69
2022-11-12T21:55:17.349Z,3.65
2022-11-12T21:58:05.024Z,3.62
2022-11-12T22:00:52.670Z,3.59
2022-11-12T22:03:40.339Z,3.53
2022-11-12T22:06:30.478Z,3.51
2022-11-12T22:09:17.925Z,3.50
2022-11-12T22:12:05.561Z,3.45
2022-11-12T22:14:53.234Z,3.43
2022-11-12T22:17:40.699Z,3.35
2022-11-12T22:20:31.013Z,3.29
2022-11-12T22:23:18.611Z,3.25
2022-11-12T22:26:11.385Z,3.29
2022-11-12T22:29:00.196Z,3.27
2022-11-12T22:31:47.873Z,3.24
2022-11-12T22:34:35.249Z,3.22
2022-11-12T22:37:46.368Z,3.19
2022-11-12T22:40:36.632Z,3.03
2022-11-12T22:43:25.028Z,3.01
2022-11-12T22:46:19.757Z,3.00
2022-11-12T22:49:07.289Z,3.03
2022-11-12T22:51:54.991Z,3.07
2022-11-12T22:54:44.883Z,3.11
2022-11-12T22:57:32.829Z,3.16
2022-11-12T23:00:31.182Z,3.16
2022-11-12T23:03:18.328Z,3.16
2022-11-12T23:06:06.943Z,3.17
2022-11-12T23:08:55.666Z,3.14
2022-11-12T23:11:43.347Z,3.12
2022-11-12T23:14:30.719Z,3.06
2022-11-12T23:17:18.355Z,3.00
2022-11-12T23:20:06.399Z,2.98
2022-11-12T23:22:53.864Z,2.94
2022-11-12T23:25:41.134Z,2.85
2022-11-12T23:28:29.113Z,2.80
2022-11-12T23:34:33.600Z,2.78
2022-11-12T23:37:20.799Z,2.72
2022-11-12T23:40:09.471Z,2.68
2022-11-12T23:42:57.001Z,2.60
2022-11-12T23:46:13.865Z,2.60
2022-11-12T23:49:00.937Z,2.51
2022-11-12T23:51:48.465Z,2.47
2022-11-12T23:54:35.964Z,2.41
2022-11-12T23:57:23.308Z,2.36
